sensor_id;sensor_type;location;lat;lon;timestamp;pressure;altitude;pressure_sealevel;temperature;humidity
32320;BME280;19080;51.750;5.888;2023-07-13T00:00:47;101119.38;;;15.33;100.00
32320;BME280;19080;51.750;5.888;2023-07-13T00:03:14;101173.78;;;15.65;100.00
32320;BME280;19080;51.750;5.888;2023-07-13T00:05:41;101195.19;;;15.76;100.00
32320;BME280;19080;51.750;5.888;2023-07-13T00:08:08;101116.69;;;15.22;100.00
32320;BME280;19080;51.750;5.888;2023-07-13T00:10:39;101180.91;;;15.52;100.00
32320;BME280;19080;51.750;5.888;2023-07-13T00:13:08;101211.28;;;15.57;100.00
32320;BME280;19080;51.750;5.888;2023-07-13T00:15:34;101182.69;;;15.35;100.00
32320;BME280;19080;51.750;5.888;2023-07-13T00:18:02;101202.31;;;15.42;100.00
32320;BME280;19080;51.750;5.888;2023-07-13T00:20:29;101168.41;;;15.18;100.00
32320;BME280;19080;51.750;5.888;2023-07-13T00:22:56;101169.28;;;15.12;100.00
32320;BME280;19080;51.750;5.888;2023-07-13T00:25:23;101188.91;;;15.23;100.00
32320;BME280;19080;51.750;5.888;2023-07-13T00:27:55;101212.09;;;15.30;100.00
32320;BME280;19080;51.750;5.888;2023-07-13T00:30:22;101145.16;;;14.89;100.00
32320;BME280;19080;51.750;5.888;2023-07-13T00:32:49;101178.16;;;14.97;100.00
32320;BME280;19080;51.750;5.888;2023-07-13T00:35:27;101193.28;;;14.89;100.00
32320;BME280;19080;51.750;5.888;2023-07-13T00:37:56;101220.06;;;15.08;100.00
32320;BME280;19080;51.750;5.888;2023-07-13T00:40:23;101113.88;;;14.47;100.00
32320;BME280;19080;51.750;5.888;2023-07-13T00:42:52;101214.69;;;15.03;100.00
32320;BME280;19080;51.750;5.888;2023-07-13T00:47:46;101213.75;;;14.87;100.00
32320;BME280;19080;51.750;5.888;2023-07-13T00:50:15;101124.47;;;14.37;100.00
32320;BME280;19080;51.750;5.888;2023-07-13T00:52:46;101198.56;;;14.77;100.00
32320;BME280;19080;51.750;5.888;2023-07-13T00:55:15;101102.16;;;14.19;100.00
32320;BME280;19080;51.750;5.888;2023-07-13T00:57:43;101182.50;;;14.62;100.00
32320;BME280;19080;51.750;5.888;2023-07-13T01:00:12;101185.16;;;14.59;100.00
32320;BME280;19080;51.750;5.888;2023-07-13T01:02:42;101187.78;;;14.53;100.00
32320;BME280;19080;51.750;5.888;2023-07-13T01:05:17;101120.75;;;14.06;100.00
32320;BME280;19080;51.750;5.888;2023-07-13T01:07:44;101130.59;;;14.14;100.00
32320;BME280;19080;51.750;5.888;2023-07-13T01:10:13;101118.97;;;14.06;100.00
32320;BME280;19080;51.750;5.888;2023-07-13T01:12:39;101136.84;;;14.16;100.00
32320;BME280;19080;51.750;5.888;2023-07-13T01:15:42;101216.31;;;14.57;100.00
32320;BME280;19080;51.750;5.888;2023-07-13T01:18:15;101118.03;;;13.95;100.00
32320;BME280;19080;51.750;5.888;2023-07-13T01:23:23;101236.75;;;14.52;100.00
32320;BME280;19080;51.750;5.888;2023-07-13T01:25:52;101235.84;;;14.50;100.00
32320;BME280;19080;51.750;5.888;2023-07-13T01:28:19;101231.44;;;14.56;100.00
32320;BME280;19080;51.750;5.888;2023-07-13T01:30:46;101136.78;;;14.07;100.00
32320;BME280;19080;51.750;5.888;2023-07-13T01:33:15;101149.25;;;14.07;100.00
32320;BME280;19080;51.750;5.888;2023-07-13T01:35:43;101176.03;;;14.25;100.00
32320;BME280;19080;51.750;5.888;2023-07-13T01:38:13;101198.34;;;14.34;100.00
32320;BME280;19080;51.750;5.888;2023-07-13T01:40:41;101201.88;;;14.30;100.00
32320;BME280;19080;51.750;5.888;2023-07-13T01:43:08;101218.03;;;14.46;100.00
32320;BME280;19080;51.750;5.888;2023-07-13T01:45:34;101204.59;;;14.38;100.00
32320;BME280;19080;51.750;5.888;2023-07-13T01:48:02;101186.75;;;14.32;100.00
32320;BME280;19080;51.750;5.888;2023-07-13T01:50:29;101221.63;;;14.51;100.00
32320;BME280;19080;51.750;5.888;2023-07-13T01:52:55;101215.34;;;14.46;100.00
32320;BME280;19080;51.750;5.888;2023-07-13T01:55:22;101111.78;;;13.85;100.00
32320;BME280;19080;51.750;5.888;2023-07-13T01:57:49;101216.19;;;14.39;100.00
32320;BME280;19080;51.750;5.888;2023-07-13T02:00:16;101244.75;;;14.49;100.00
32320;BME280;19080;51.750;5.888;2023-07-13T02:02:48;101194.75;;;14.26;100.00
32320;BME280;19080;51.750;5.888;2023-07-13T02:05:16;101205.47;;;14.32;100.00
32320;BME280;19080;51.750;5.888;2023-07-13T02:07:43;101233.16;;;14.47;100.00
32320;BME280;19080;51.750;5.888;2023-07-13T02:10:10;101228.66;;;14.40;100.00
32320;BME280;19080;51.750;5.888;2023-07-13T02:12:39;101187.59;;;14.19;100.00
32320;BME280;19080;51.750;5.888;2023-07-13T02:15:07;101217.91;;;14.30;100.00
32320;BME280;19080;51.750;5.888;2023-07-13T02:17:35;101137.56;;;13.88;100.00
32320;BME280;19080;51.750;5.888;2023-07-13T02:20:03;101202.72;;;14.19;100.00
32320;BME280;19080;51.750;5.888;2023-07-13T02:22:31;101224.13;;;14.28;100.00
32320;BME280;19080;51.750;5.888;2023-07-13T02:24:58;101206.25;;;14.16;100.00
32320;BME280;19080;51.750;5.888;2023-07-13T02:27:25;101191.03;;;14.03;100.00
32320;BME280;19080;51.750;5.888;2023-07-13T02:29:52;101134.81;;;13.73;100.00
32320;BME280;19080;51.750;5.888;2023-07-13T02:32:20;101171.38;;;13.90;100.00
32320;BME280;19080;51.750;5.888;2023-07-13T02:34:47;101201.72;;;14.03;100.00
32320;BME280;19080;51.750;5.888;2023-07-13T02:37:14;101190.97;;;13.94;100.00
32320;BME280;19080;51.750;5.888;2023-07-13T02:39:41;101224.00;;;14.11;100.00
32320;BME280;19080;51.750;5.888;2023-07-13T02:42:07;101229.31;;;14.08;100.00
32320;BME280;19080;51.750;5.888;2023-07-13T02:44:34;101133.72;;;13.46;100.00
32320;BME280;19080;51.750;5.888;2023-07-13T02:47:01;101205.13;;;13.81;100.00
32320;BME280;19080;51.750;5.888;2023-07-13T02:49:29;101205.13;;;13.81;100.00
32320;BME280;19080;51.750;5.888;2023-07-13T02:51:55;101227.47;;;13.98;100.00
32320;BME280;19080;51.750;5.888;2023-07-13T02:54:22;101243.56;;;14.07;100.00
32320;BME280;19080;51.750;5.888;2023-07-13T02:56:49;101112.34;;;13.40;100.00
32320;BME280;19080;51.750;5.888;2023-07-13T02:59:16;101148.13;;;13.66;100.00
32320;BME280;19080;51.750;5.888;2023-07-13T03:01:42;101215.09;;;14.09;100.00
32320;BME280;19080;51.750;5.888;2023-07-13T03:04:10;101221.41;;;14.20;100.00
32320;BME280;19080;51.750;5.888;2023-07-13T03:06:37;101151.75;;;13.78;100.00
32320;BME280;19080;51.750;5.888;2023-07-13T03:09:04;101230.28;;;14.19;100.00
32320;BME280;19080;51.750;5.888;2023-07-13T03:11:34;101249.09;;;14.34;100.00
32320;BME280;19080;51.750;5.888;2023-07-13T03:14:10;101245.47;;;14.25;100.00
32320;BME280;19080;51.750;5.888;2023-07-13T03:16:38;101246.28;;;14.16;100.00
32320;BME280;19080;51.750;5.888;2023-07-13T03:19:05;101215.81;;;13.81;100.00
32320;BME280;19080;51.750;5.888;2023-07-13T03:21:32;101231.88;;;13.85;100.00
32320;BME280;19080;51.750;5.888;2023-07-13T03:23:58;101244.28;;;13.88;100.00
32320;BME280;19080;51.750;5.888;2023-07-13T03:26:25;101238.97;;;13.85;100.00
32320;BME280;19080;51.750;5.888;2023-07-13T03:28:52;101256.81;;;13.93;100.00
32320;BME280;19080;51.750;5.888;2023-07-13T03:31:31;101256.78;;;13.92;100.00
32320;BME280;19080;51.750;5.888;2023-07-13T03:33:58;101246.91;;;13.77;100.00
32320;BME280;19080;51.750;5.888;2023-07-13T03:36:30;101145.03;;;13.16;100.00
32320;BME280;19080;51.750;5.888;2023-07-13T03:39:02;101153.94;;;13.21;100.00
32320;BME280;19080;51.750;5.888;2023-07-13T03:41:40;101232.50;;;13.57;100.00
32320;BME280;19080;51.750;5.888;2023-07-13T03:44:07;101260.16;;;13.66;100.00
32320;BME280;19080;51.750;5.888;2023-07-13T03:46:33;101256.56;;;13.63;100.00
32320;BME280;19080;51.750;5.888;2023-07-13T03:49:01;101183.25;;;13.20;100.00
32320;BME280;19080;51.750;5.888;2023-07-13T03:51:28;101269.03;;;13.65;100.00
32320;BME280;19080;51.750;5.888;2023-07-13T03:53:55;101161.69;;;12.98;100.00
32320;BME280;19080;51.750;5.888;2023-07-13T03:56:22;101186.72;;;13.13;100.00
32320;BME280;19080;51.750;5.888;2023-07-13T03:58:50;101122.28;;;12.67;100.00
32320;BME280;19080;51.750;5.888;2023-07-13T04:01:20;101252.81;;;13.44;100.00
32320;BME280;19080;51.750;5.888;2023-07-13T04:03:47;101251.94;;;13.44;100.00
32320;BME280;19080;51.750;5.888;2023-07-13T04:06:23;101277.88;;;13.61;100.00
32320;BME280;19080;51.750;5.888;2023-07-13T04:08:53;101192.94;;;13.13;100.00
32320;BME280;19080;51.750;5.888;2023-07-13T04:11:24;101241.25;;;13.44;100.00
32320;BME280;19080;51.750;5.888;2023-07-13T04:13:51;101237.69;;;13.42;100.00
32320;BME280;19080;51.750;5.888;2023-07-13T04:16:19;101273.47;;;13.63;100.00
32320;BME280;19080;51.750;5.888;2023-07-13T04:18:47;101268.16;;;13.66;100.00
32320;BME280;19080;51.750;5.888;2023-07-13T04:21:15;101268.19;;;13.70;100.00
32320;BME280;19080;51.750;5.888;2023-07-13T04:23:42;101231.66;;;13.62;100.00
32320;BME280;19080;51.750;5.888;2023-07-13T04:26:09;101172.00;;;13.50;100.00
32320;BME280;19080;51.750;5.888;2023-07-13T04:28:36;101210.47;;;13.81;100.00
32320;BME280;19080;51.750;5.888;2023-07-13T04:31:03;101292.69;;;14.33;100.00
32320;BME280;19080;51.750;5.888;2023-07-13T04:33:30;101252.59;;;14.24;100.00
32320;BME280;19080;51.750;5.888;2023-07-13T04:35:57;101300.88;;;14.55;100.00
32320;BME280;19080;51.750;5.888;2023-07-13T04:38:26;101211.56;;;14.13;100.00
32320;BME280;19080;51.750;5.888;2023-07-13T04:40:58;101261.69;;;14.51;100.00
32320;BME280;19080;51.750;5.888;2023-07-13T04:43:27;101218.91;;;14.45;100.00
32320;BME280;19080;51.750;5.888;2023-07-13T04:45:54;101218.97;;;14.55;100.00
32320;BME280;19080;51.750;5.888;2023-07-13T04:48:21;101302.09;;;15.18;100.00
32320;BME280;19080;51.750;5.888;2023-07-13T04:50:48;101298.59;;;15.34;100.00
32320;BME280;19080;51.750;5.888;2023-07-13T04:53:20;101308.47;;;15.64;100.00
32320;BME280;19080;51.750;5.888;2023-07-13T04:55:48;101301.34;;;15.75;100.00
32320;BME280;19080;51.750;5.888;2023-07-13T04:58:14;101260.31;;;15.73;100.00
32320;BME280;19080;51.750;5.888;2023-07-13T05:00:41;101313.88;;;16.07;100.00
32320;BME280;19080;51.750;5.888;2023-07-13T05:03:08;101280.84;;;15.97;100.00
32320;BME280;19080;51.750;5.888;2023-07-13T05:05:35;101230.88;;;15.81;100.00
32320;BME280;19080;51.750;5.888;2023-07-13T05:08:01;101317.41;;;16.47;100.00
32320;BME280;19080;51.750;5.888;2023-07-13T05:10:28;101318.31;;;16.55;100.00
32320;BME280;19080;51.750;5.888;2023-07-13T05:12:55;101311.16;;;16.57;100.00
32320;BME280;19080;51.750;5.888;2023-07-13T05:15:22;101311.13;;;16.81;100.00
32320;BME280;19080;51.750;5.888;2023-07-13T05:17:49;101327.13;;;17.12;100.00
32320;BME280;19080;51.750;5.888;2023-07-13T05:20:17;101333.34;;;17.23;100.00
32320;BME280;19080;51.750;5.888;2023-07-13T05:22:44;101344.94;;;17.28;100.00
32320;BME280;19080;51.750;5.888;2023-07-13T05:25:13;101330.59;;;17.32;100.00
32320;BME280;19080;51.750;5.888;2023-07-13T05:27:40;101317.28;;;17.12;100.00
32320;BME280;19080;51.750;5.888;2023-07-13T05:30:07;101309.22;;;17.14;100.00
32320;BME280;19080;51.750;5.888;2023-07-13T05:32:37;101337.78;;;17.27;100.00
32320;BME280;19080;51.750;5.888;2023-07-13T05:35:04;101338.63;;;17.34;100.00
32320;BME280;19080;51.750;5.888;2023-07-13T05:37:31;101262.81;;;16.97;100.00
32320;BME280;19080;51.750;5.888;2023-07-13T05:39:57;101348.38;;;17.51;100.00
32320;BME280;19080;51.750;5.888;2023-07-13T05:42:24;101335.00;;;17.44;100.00
32320;BME280;19080;51.750;5.888;2023-07-13T05:44:51;101318.00;;;17.40;100.00
32320;BME280;19080;51.750;5.888;2023-07-13T05:47:17;101293.88;;;17.37;100.00
32320;BME280;19080;51.750;5.888;2023-07-13T05:49:44;101337.63;;;17.50;100.00
32320;BME280;19080;51.750;5.888;2023-07-13T05:52:10;101339.41;;;17.55;100.00
32320;BME280;19080;51.750;5.888;2023-07-13T05:54:37;101341.19;;;17.56;100.00
32320;BME280;19080;51.750;5.888;2023-07-13T05:57:04;101320.63;;;17.52;100.00
32320;BME280;19080;51.750;5.888;2023-07-13T05:59:31;101332.19;;;17.64;100.00
32320;BME280;19080;51.750;5.888;2023-07-13T06:01:57;101332.19;;;17.71;100.00
32320;BME280;19080;51.750;5.888;2023-07-13T06:04:24;101354.34;;;18.04;100.00
32320;BME280;19080;51.750;5.888;2023-07-13T06:06:51;101342.66;;;18.11;100.00
32320;BME280;19080;51.750;5.888;2023-07-13T06:09:18;101338.97;;;18.23;100.00
32320;BME280;19080;51.750;5.888;2023-07-13T06:11:44;101350.44;;;18.44;100.00
32320;BME280;19080;51.750;5.888;2023-07-13T06:14:11;101354.84;;;18.50;100.00
32320;BME280;19080;51.750;5.888;2023-07-13T06:16:39;101287.84;;;18.30;100.00
32320;BME280;19080;51.750;5.888;2023-07-13T06:19:06;101360.72;;;18.93;100.00
32320;BME280;19080;51.750;5.888;2023-07-13T06:21:33;101358.00;;;18.96;100.00
32320;BME280;19080;51.750;5.888;2023-07-13T06:23:59;101375.75;;;19.11;100.00
32320;BME280;19080;51.750;5.888;2023-07-13T06:26:26;101361.50;;;19.06;100.00
32320;BME280;19080;51.750;5.888;2023-07-13T06:28:53;101301.06;;;18.53;100.00
32320;BME280;19080;51.750;5.888;2023-07-13T06:31:19;101346.63;;;18.71;100.00
32320;BME280;19080;51.750;5.888;2023-07-13T06:33:46;101311.75;;;18.62;100.00
32320;BME280;19080;51.750;5.888;2023-07-13T06:36:13;101374.84;;;19.12;100.00
32320;BME280;19080;51.750;5.888;2023-07-13T06:38:39;101391.75;;;19.23;100.00
32320;BME280;19080;51.750;5.888;2023-07-13T06:41:07;101390.81;;;19.27;100.00
32320;BME280;19080;51.750;5.888;2023-07-13T06:43:35;101373.69;;;19.34;100.00
32320;BME280;19080;51.750;5.888;2023-07-13T06:46:01;101403.72;;;19.73;100.00
32320;BME280;19080;51.750;5.888;2023-07-13T06:48:28;101383.47;;;20.07;100.00
32320;BME280;19080;51.750;5.888;2023-07-13T06:50:55;101388.53;;;20.29;100.00
32320;BME280;19080;51.750;5.888;2023-07-13T06:53:22;101377.69;;;20.32;100.00
32320;BME280;19080;51.750;5.888;2023-07-13T06:55:49;101388.91;;;20.61;100.00
32320;BME280;19080;51.750;5.888;2023-07-13T06:58:17;101327.53;;;20.22;100.00
32320;BME280;19080;51.750;5.888;2023-07-13T07:00:45;101397.31;;;20.43;100.00
32320;BME280;19080;51.750;5.888;2023-07-13T07:03:12;101334.22;;;19.96;100.00
32320;BME280;19080;51.750;5.888;2023-07-13T07:05:39;101395.25;;;20.59;100.00
32320;BME280;19080;51.750;5.888;2023-07-13T07:08:06;101339.84;;;20.38;100.00
32320;BME280;19080;51.750;5.888;2023-07-13T07:10:33;101398.56;;;20.74;100.00
32320;BME280;19080;51.750;5.888;2023-07-13T07:13:01;101410.72;;;20.97;100.00
32320;BME280;19080;51.750;5.888;2023-07-13T07:15:28;101395.91;;;21.18;100.00
32320;BME280;19080;51.750;5.888;2023-07-13T07:17:54;101371.09;;;20.99;100.00
32320;BME280;19080;51.750;5.888;2023-07-13T07:20:21;101411.28;;;21.14;100.00
32320;BME280;19080;51.750;5.888;2023-07-13T07:22:48;101375.78;;;20.89;100.00
32320;BME280;19080;51.750;5.888;2023-07-13T07:25:15;101408.59;;;21.14;100.00
32320;BME280;19080;51.750;5.888;2023-07-13T07:27:42;101345.25;;;20.86;100.00
32320;BME280;19080;51.750;5.888;2023-07-13T07:30:12;101410.31;;;21.18;100.00
32320;BME280;19080;51.750;5.888;2023-07-13T07:32:42;101416.25;;;21.38;100.00
32320;BME280;19080;51.750;5.888;2023-07-13T07:35:23;101409.31;;;21.25;100.00
32320;BME280;19080;51.750;5.888;2023-07-13T07:37:49;101421.81;;;21.29;100.00
32320;BME280;19080;51.750;5.888;2023-07-13T07:40:17;101414.47;;;21.37;100.00
32320;BME280;19080;51.750;5.888;2023-07-13T07:42:47;101364.28;;;21.26;100.00
32320;BME280;19080;51.750;5.888;2023-07-13T07:45:14;101423.66;;;21.72;100.00
32320;BME280;19080;51.750;5.888;2023-07-13T07:47:41;101398.38;;;22.15;100.00
32320;BME280;19080;51.750;5.888;2023-07-13T07:50:08;101352.41;;;22.15;100.00
32320;BME280;19080;51.750;5.888;2023-07-13T07:52:35;101417.81;;;23.01;100.00
32320;BME280;19080;51.750;5.888;2023-07-13T07:55:03;101406.69;;;23.12;100.00
32320;BME280;19080;51.750;5.888;2023-07-13T07:57:33;101380.53;;;23.11;100.00
32320;BME280;19080;51.750;5.888;2023-07-13T08:00:20;101418.31;;;23.48;100.00
32320;BME280;19080;51.750;5.888;2023-07-13T08:02:50;101419.81;;;23.27;100.00
32320;BME280;19080;51.750;5.888;2023-07-13T08:05:20;101426.31;;;23.20;100.00
32320;BME280;19080;51.750;5.888;2023-07-13T08:08:04;101389.03;;;22.97;100.00
32320;BME280;19080;51.750;5.888;2023-07-13T08:10:31;101401.31;;;23.11;100.00
32320;BME280;19080;51.750;5.888;2023-07-13T08:12:58;101354.22;;;22.84;100.00
32320;BME280;19080;51.750;5.888;2023-07-13T08:15:27;101419.09;;;23.52;100.00
32320;BME280;19080;51.750;5.888;2023-07-13T08:17:54;101411.16;;;23.77;100.00
32320;BME280;19080;51.750;5.888;2023-07-13T08:20:23;101415.84;;;23.72;100.00
32320;BME280;19080;51.750;5.888;2023-07-13T08:22:50;101416.16;;;23.90;100.00
32320;BME280;19080;51.750;5.888;2023-07-13T08:25:16;101420.50;;;24.25;100.00
32320;BME280;19080;51.750;5.888;2023-07-13T08:27:43;101416.50;;;24.37;100.00
32320;BME280;19080;51.750;5.888;2023-07-13T08:30:10;101399.50;;;24.58;97.86
32320;BME280;19080;51.750;5.888;2023-07-13T08:32:36;101353.13;;;24.38;96.74
32320;BME280;19080;51.750;5.888;2023-07-13T08:35:05;101409.25;;;24.64;94.59
32320;BME280;19080;51.750;5.888;2023-07-13T08:37:32;101391.38;;;24.30;91.82
32320;BME280;19080;51.750;5.888;2023-07-13T08:39:58;101398.84;;;24.50;94.33
32320;BME280;19080;51.750;5.888;2023-07-13T08:42:46;101410.44;;;24.55;95.40
32320;BME280;19080;51.750;5.888;2023-07-13T08:45:33;101345.91;;;24.11;91.74
32320;BME280;19080;51.750;5.888;2023-07-13T08:48:09;101396.44;;;24.94;89.34
32320;BME280;19080;51.750;5.888;2023-07-13T08:50:49;101427.34;;;25.41;85.67
32320;BME280;19080;51.750;5.888;2023-07-13T08:53:46;101424.94;;;25.57;80.60
32320;BME280;19080;51.750;5.888;2023-07-13T08:56:19;101422.88;;;25.15;81.70
32320;BME280;19080;51.750;5.888;2023-07-13T08:58:50;101356.81;;;24.09;84.00
32320;BME280;19080;51.750;5.888;2023-07-13T09:01:25;101429.88;;;23.86;93.13
32320;BME280;19080;51.750;5.888;2023-07-13T09:04:06;101354.28;;;23.75;86.67
32320;BME280;19080;51.750;5.888;2023-07-13T09:12:11;101412.88;;;25.41;74.43
32320;BME280;19080;51.750;5.888;2023-07-13T09:14:49;101413.22;;;25.80;69.85
32320;BME280;19080;51.750;5.888;2023-07-13T09:17:19;101394.19;;;26.02;67.60
32320;BME280;19080;51.750;5.888;2023-07-13T09:19:55;101391.47;;;26.23;64.66
32320;BME280;19080;51.750;5.888;2023-07-13T09:22:24;101408.88;;;26.85;60.56
32320;BME280;19080;51.750;5.888;2023-07-13T09:25:00;101399.34;;;26.95;59.27
32320;BME280;19080;51.750;5.888;2023-07-13T09:27:35;101394.34;;;27.06;59.82
32320;BME280;19080;51.750;5.888;2023-07-13T09:32:43;101416.78;;;27.52;54.41
32320;BME280;19080;51.750;5.888;2023-07-13T09:35:12;101406.88;;;27.31;55.78
32320;BME280;19080;51.750;5.888;2023-07-13T09:37:43;101405.09;;;27.09;56.42
32320;BME280;19080;51.750;5.888;2023-07-13T09:40:20;101345.91;;;26.07;54.56
32320;BME280;19080;51.750;5.888;2023-07-13T09:42:49;101393.06;;;25.85;57.90
32320;BME280;19080;51.750;5.888;2023-07-13T09:45:26;101416.78;;;25.82;60.65
32320;BME280;19080;51.750;5.888;2023-07-13T09:48:12;101417.13;;;26.18;59.62
32320;BME280;19080;51.750;5.888;2023-07-13T09:50:42;101359.66;;;25.82;56.50
32320;BME280;19080;51.750;5.888;2023-07-13T09:53:15;101392.22;;;25.60;56.22
32320;BME280;19080;51.750;5.888;2023-07-13T09:55:42;101414.00;;;25.35;58.40
32320;BME280;19080;51.750;5.888;2023-07-13T09:58:25;101397.25;;;25.22;58.79
32320;BME280;19080;51.750;5.888;2023-07-13T10:01:01;101409.25;;;25.65;58.27
32320;BME280;19080;51.750;5.888;2023-07-13T10:03:34;101387.75;;;25.82;57.09
32320;BME280;19080;51.750;5.888;2023-07-13T10:06:31;101414.34;;;25.98;57.96
32320;BME280;19080;51.750;5.888;2023-07-13T10:08:58;101412.16;;;25.84;59.41
32320;BME280;19080;51.750;5.888;2023-07-13T10:11:30;101346.16;;;25.55;58.30
32320;BME280;19080;51.750;5.888;2023-07-13T10:13:58;101410.09;;;25.90;57.54
32320;BME280;19080;51.750;5.888;2023-07-13T10:16:29;101410.03;;;25.69;57.14
32320;BME280;19080;51.750;5.888;2023-07-13T10:19:14;101416.94;;;25.77;57.11
32320;BME280;19080;51.750;5.888;2023-07-13T10:21:57;101340.44;;;25.40;57.25
32320;BME280;19080;51.750;5.888;2023-07-13T10:24:27;101416.59;;;25.86;58.38
32320;BME280;19080;51.750;5.888;2023-07-13T10:27:20;101409.03;;;25.71;57.68
32320;BME280;19080;51.750;5.888;2023-07-13T10:32:26;101404.72;;;24.64;60.11
32320;BME280;19080;51.750;5.888;2023-07-13T10:34:53;101402.28;;;24.29;61.01
32320;BME280;19080;51.750;5.888;2023-07-13T10:37:25;101405.13;;;23.96;64.43
32320;BME280;19080;51.750;5.888;2023-07-13T10:39:55;101424.03;;;23.70;68.87
32320;BME280;19080;51.750;5.888;2023-07-13T10:42:52;101426.75;;;23.37;76.28
32320;BME280;19080;51.750;5.888;2023-07-13T10:45:23;101427.69;;;23.04;86.78
32320;BME280;19080;51.750;5.888;2023-07-13T10:47:52;101426.22;;;22.91;90.30
32320;BME280;19080;51.750;5.888;2023-07-13T10:50:24;101408.50;;;23.12;88.48
32320;BME280;19080;51.750;5.888;2023-07-13T10:52:55;101441.16;;;23.71;79.34
32320;BME280;19080;51.750;5.888;2023-07-13T10:58:15;101432.59;;;23.86;68.83
32320;BME280;19080;51.750;5.888;2023-07-13T11:03:32;101466.91;;;22.88;100.00
32320;BME280;19080;51.750;5.888;2023-07-13T11:06:09;101491.25;;;21.69;100.00
32320;BME280;19080;51.750;5.888;2023-07-13T11:08:54;101511.44;;;20.46;100.00
32320;BME280;19080;51.750;5.888;2023-07-13T11:21:32;101460.53;;;18.64;100.00
32320;BME280;19080;51.750;5.888;2023-07-13T11:26:43;101506.59;;;17.97;100.00
32320;BME280;19080;51.750;5.888;2023-07-13T11:32:00;101458.53;;;17.19;100.00
32320;BME280;19080;51.750;5.888;2023-07-13T11:34:36;101508.59;;;17.31;100.00
32320;BME280;19080;51.750;5.888;2023-07-13T11:37:11;101503.25;;;17.31;100.00
32320;BME280;19080;51.750;5.888;2023-07-13T11:39:43;101484.47;;;17.22;100.00
32320;BME280;19080;51.750;5.888;2023-07-13T11:42:16;101446.88;;;17.31;100.00
32320;BME280;19080;51.750;5.888;2023-07-13T11:44:49;101337.94;;;16.86;100.00
32320;BME280;19080;51.750;5.888;2023-07-13T11:47:40;101418.19;;;17.42;100.00
32320;BME280;19080;51.750;5.888;2023-07-13T11:50:18;101514.63;;;18.06;100.00
32320;BME280;19080;51.750;5.888;2023-07-13T11:52:45;101495.81;;;18.08;100.00
32320;BME280;19080;51.750;5.888;2023-07-13T11:55:17;101497.53;;;18.21;100.00
32320;BME280;19080;51.750;5.888;2023-07-13T11:57:54;101516.25;;;18.35;100.00
32320;BME280;19080;51.750;5.888;2023-07-13T12:00:26;101520.84;;;18.19;100.00
32320;BME280;19080;51.750;5.888;2023-07-13T12:02:56;101519.13;;;18.01;100.00
32320;BME280;19080;51.750;5.888;2023-07-13T12:05:23;101495.00;;;17.92;100.00
32320;BME280;19080;51.750;5.888;2023-07-13T12:07:51;101498.41;;;18.21;100.00
32320;BME280;19080;51.750;5.888;2023-07-13T12:10:24;101496.38;;;18.63;100.00
32320;BME280;19080;51.750;5.888;2023-07-13T12:13:00;101429.53;;;19.14;100.00
32320;BME280;19080;51.750;5.888;2023-07-13T12:15:37;101468.72;;;20.74;100.00
32320;BME280;19080;51.750;5.888;2023-07-13T12:18:18;101490.47;;;22.47;100.00
32320;BME280;19080;51.750;5.888;2023-07-13T12:20:47;101478.94;;;22.74;100.00
32320;BME280;19080;51.750;5.888;2023-07-13T12:23:23;101483.44;;;23.11;100.00
32320;BME280;19080;51.750;5.888;2023-07-13T12:25:52;101428.84;;;22.94;100.00
32320;BME280;19080;51.750;5.888;2023-07-13T12:28:21;101469.31;;;24.53;100.00
32320;BME280;19080;51.750;5.888;2023-07-13T12:30:48;101367.09;;;25.77;100.00
32320;BME280;19080;51.750;5.888;2023-07-13T12:33:16;101446.94;;;27.69;100.00
32320;BME280;19080;51.750;5.888;2023-07-13T12:35:46;101415.81;;;28.30;89.60
32320;BME280;19080;51.750;5.888;2023-07-13T12:38:15;101470.88;;;29.11;84.70
32320;BME280;19080;51.750;5.888;2023-07-13T12:40:42;101461.91;;;29.44;76.80
32320;BME280;19080;51.750;5.888;2023-07-13T12:43:13;101432.78;;;29.59;80.55
32320;BME280;19080;51.750;5.888;2023-07-13T12:46:02;101429.91;;;30.26;78.16
32320;BME280;19080;51.750;5.888;2023-07-13T12:48:29;101418.97;;;30.58;69.71
32320;BME280;19080;51.750;5.888;2023-07-13T12:51:13;101474.28;;;31.40;69.87
32320;BME280;19080;51.750;5.888;2023-07-13T12:53:43;101462.78;;;31.78;64.75
32320;BME280;19080;51.750;5.888;2023-07-13T12:56:23;101444.13;;;32.11;57.11
32320;BME280;19080;51.750;5.888;2023-07-13T12:58:57;101478.09;;;30.62;62.39
32320;BME280;19080;51.750;5.888;2023-07-13T13:01:29;101475.16;;;29.85;61.95
32320;BME280;19080;51.750;5.888;2023-07-13T13:04:01;101444.47;;;30.11;62.13
32320;BME280;19080;51.750;5.888;2023-07-13T13:06:33;101452.00;;;30.55;66.67
32320;BME280;19080;51.750;5.888;2023-07-13T13:09:02;101440.88;;;30.42;58.19
32320;BME280;19080;51.750;5.888;2023-07-13T13:11:31;101400.56;;;30.28;57.07
32320;BME280;19080;51.750;5.888;2023-07-13T13:13:58;101443.16;;;30.50;59.75
32320;BME280;19080;51.750;5.888;2023-07-13T13:18:56;101464.94;;;29.38;64.00
32320;BME280;19080;51.750;5.888;2023-07-13T13:21:24;101469.41;;;28.32;67.17
32320;BME280;19080;51.750;5.888;2023-07-13T13:23:52;101469.72;;;27.68;71.58
32320;BME280;19080;51.750;5.888;2023-07-13T13:26:21;101459.41;;;27.14;76.50
32320;BME280;19080;51.750;5.888;2023-07-13T13:28:48;101462.63;;;26.59;70.40
32320;BME280;19080;51.750;5.888;2023-07-13T13:31:15;101382.06;;;25.65;80.48
32320;BME280;19080;51.750;5.888;2023-07-13T13:33:45;101407.09;;;25.50;100.00
32320;BME280;19080;51.750;5.888;2023-07-13T13:36:17;101459.88;;;25.69;100.00